createdAt,value
2019-02-11T00:01:18.410Z,58.00
2019-02-11T00:04:24.282Z,57.55
2019-02-11T00:07:30.068Z,57.16
2019-02-11T00:10:35.862Z,57.57
2019-02-11T00:13:41.635Z,57.62
2019-02-11T00:16:47.487Z,57.33
2019-02-11T00:19:53.269Z,57.25
2019-02-11T00:22:59.097Z,57.82
2019-02-11T00:26:04.855Z,58.18
2019-02-11T00:29:10.639Z,57.85
2019-02-11T00:32:16.423Z,60.29
2019-02-11T00:35:22.197Z,59.17
2019-02-11T00:38:28.002Z,58.56
2019-02-11T00:41:33.796Z,58.04
2019-02-11T00:44:39.582Z,57.74
2019-02-11T00:47:45.329Z,57.74
2019-02-11T00:50:51.135Z,57.88
2019-02-11T00:53:56.909Z,58.56
2019-02-11T00:57:02.685Z,58.07
2019-02-11T01:00:10.593Z,57.62
2019-02-11T01:03:16.372Z,57.71
2019-02-11T01:06:22.176Z,57.69
2019-02-11T01:09:27.925Z,57.73
2019-02-11T01:12:33.718Z,58.17
2019-02-11T01:15:39.480Z,58.71
2019-02-11T01:18:45.254Z,60.03
2019-02-11T01:21:51.012Z,59.31
2019-02-11T01:24:56.798Z,59.90
2019-02-11T01:28:02.555Z,59.23
2019-02-11T01:31:08.322Z,58.87
2019-02-11T01:34:14.059Z,58.29
2019-02-11T01:37:19.841Z,58.07
2019-02-11T01:40:25.598Z,58.15
2019-02-11T01:43:36.138Z,58.03
2019-02-11T01:46:38.789Z,58.18
2019-02-11T01:49:44.682Z,57.87
2019-02-11T01:52:50.444Z,58.12
2019-02-11T01:55:56.213Z,58.49
2019-02-11T01:59:01.976Z,58.93
2019-02-11T02:02:07.763Z,58.88
2019-02-11T02:05:13.599Z,58.55
2019-02-11T02:08:19.447Z,58.46
2019-02-11T02:11:25.202Z,59.27
2019-02-11T02:14:31.132Z,58.88
2019-02-11T02:17:36.904Z,58.97
2019-02-11T02:20:42.730Z,58.98
2019-02-11T02:23:48.492Z,58.86
2019-02-11T02:26:54.256Z,59.97
2019-02-11T02:30:00.035Z,59.17
2019-02-11T02:33:05.939Z,59.14
2019-02-11T02:36:11.730Z,62.24
2019-02-11T02:39:17.507Z,61.38
2019-02-11T02:42:23.273Z,61.43
2019-02-11T02:45:29.256Z,60.91
2019-02-11T02:48:35.009Z,60.15
2019-02-11T02:51:40.777Z,59.90
2019-02-11T02:54:46.861Z,59.39
2019-02-11T02:57:52.672Z,59.36
2019-02-11T03:00:58.450Z,59.79
2019-02-11T03:04:04.218Z,59.50
2019-02-11T03:07:09.979Z,59.64
2019-02-11T03:10:15.915Z,59.49
2019-02-11T03:13:21.649Z,59.08
2019-02-11T03:16:27.422Z,59.17
2019-02-11T03:19:33.179Z,59.58
2019-02-11T03:22:38.973Z,59.73
2019-02-11T03:25:44.727Z,60.26
2019-02-11T03:28:50.483Z,59.75
2019-02-11T03:31:59.736Z,60.32
2019-02-11T03:35:03.705Z,60.14
2019-02-11T03:38:09.461Z,60.99
2019-02-11T03:41:15.258Z,61.60
2019-02-11T03:44:21.049Z,59.98
2019-02-11T03:47:26.874Z,59.99
2019-02-11T03:50:32.637Z,60.08
2019-02-11T03:53:38.404Z,60.05
2019-02-11T03:56:44.357Z,59.37
2019-02-11T03:59:50.237Z,60.40
2019-02-11T04:02:56.309Z,60.46
2019-02-11T04:06:02.058Z,62.42
2019-02-11T04:09:08.412Z,62.44
2019-02-11T04:12:14.187Z,61.20
2019-02-11T04:15:19.971Z,63.19
2019-02-11T04:18:25.773Z,62.35
2019-02-11T04:21:31.542Z,61.46
2019-02-11T04:24:37.502Z,63.61
2019-02-11T04:27:43.255Z,62.35
2019-02-11T04:30:49.060Z,61.44
2019-02-11T04:33:54.881Z,61.07
2019-02-11T04:37:00.636Z,63.47
2019-02-11T04:40:07.325Z,62.37
2019-02-11T04:43:13.110Z,61.99
2019-02-11T04:46:18.879Z,62.55
2019-02-11T04:49:24.646Z,63.66
2019-02-11T04:52:30.406Z,62.73
2019-02-11T04:55:36.210Z,62.68
2019-02-11T04:58:41.964Z,62.69
2019-02-11T05:01:47.715Z,63.83
2019-02-11T05:04:53.483Z,63.12
2019-02-11T05:07:59.270Z,62.49
2019-02-11T05:11:05.145Z,62.10
2019-02-11T05:14:10.914Z,65.00
2019-02-11T05:17:16.683Z,64.42
2019-02-11T05:20:22.526Z,64.38
2019-02-11T05:23:28.284Z,64.38
2019-02-11T05:26:34.057Z,64.06
2019-02-11T05:29:39.821Z,64.97
2019-02-11T05:32:45.626Z,64.20
2019-02-11T05:35:51.377Z,66.06
2019-02-11T05:38:57.231Z,63.87
2019-02-11T05:42:02.995Z,63.64
2019-02-11T05:45:09.014Z,62.47
2019-02-11T05:48:14.771Z,63.92
2019-02-11T05:51:20.554Z,63.39
2019-02-11T05:54:26.319Z,64.56
2019-02-11T05:57:32.124Z,63.81
2019-02-11T06:00:37.890Z,64.29
2019-02-11T06:03:43.660Z,65.76
2019-02-11T06:06:49.442Z,64.53
2019-02-11T06:09:55.203Z,66.26
2019-02-11T06:13:00.955Z,66.71
2019-02-11T06:16:06.752Z,66.09
2019-02-11T06:19:12.479Z,65.35
2019-02-11T06:22:18.233Z,65.41
2019-02-11T06:25:23.994Z,63.99
2019-02-11T06:28:29.770Z,63.63
2019-02-11T06:31:35.645Z,64.44
2019-02-11T06:34:41.611Z,64.59
2019-02-11T06:37:47.382Z,62.97
2019-02-11T06:40:53.181Z,62.03
2019-02-11T06:43:58.938Z,61.80
2019-02-11T06:47:04.705Z,61.51
2019-02-11T06:50:11.456Z,60.96
2019-02-11T06:53:18.259Z,59.24
2019-02-11T06:56:24.044Z,59.45
2019-02-11T06:59:31.043Z,61.76
2019-02-11T07:02:36.804Z,60.98
2019-02-11T07:05:42.610Z,61.74
2019-02-11T07:08:48.381Z,61.01
2019-02-11T07:11:54.151Z,61.39
2019-02-11T07:14:59.910Z,59.20
2019-02-11T07:18:05.702Z,59.93
2019-02-11T07:21:11.478Z,60.51
2019-02-11T07:24:17.309Z,58.94
2019-02-11T07:27:23.222Z,58.44
2019-02-11T07:30:29.041Z,57.44
2019-02-11T07:33:34.936Z,55.28
2019-02-11T07:36:40.717Z,54.61
2019-02-11T07:39:46.508Z,53.96
2019-02-11T07:42:57.538Z,53.27
2019-02-11T07:46:31.515Z,53.39
2019-02-11T07:49:37.439Z,53.15
2019-02-11T07:52:43.309Z,54.74
2019-02-11T07:55:49.119Z,52.01
2019-02-11T07:58:54.906Z,50.71
2019-02-11T08:02:00.687Z,50.38
2019-02-11T08:05:07.039Z,49.22
2019-02-11T08:08:12.873Z,49.26
2019-02-11T08:11:18.770Z,49.99
2019-02-11T08:14:24.730Z,49.10
2019-02-11T08:17:30.647Z,49.81
2019-02-11T08:20:36.721Z,49.57
2019-02-11T08:23:42.562Z,49.62
2019-02-11T08:26:48.376Z,49.10
2019-02-11T08:29:55.161Z,48.68
2019-02-11T08:33:01.014Z,47.96
2019-02-11T08:36:06.803Z,47.56
2019-02-11T08:39:12.832Z,47.65
2019-02-11T08:42:18.609Z,48.55
2019-02-11T08:45:24.403Z,48.08
2019-02-11T08:48:30.205Z,48.14
2019-02-11T08:51:36.035Z,47.69
2019-02-11T08:54:41.847Z,48.05
2019-02-11T08:57:47.714Z,48.33
2019-02-11T09:00:53.615Z,48.61
2019-02-11T09:03:59.495Z,49.32
2019-02-11T09:07:05.361Z,49.13
2019-02-11T09:10:11.835Z,48.26
2019-02-11T09:13:18.728Z,47.58
2019-02-11T09:16:24.707Z,48.04
2019-02-11T09:19:30.531Z,48.66
2019-02-11T09:22:36.317Z,49.49
2019-02-11T09:25:42.149Z,49.22
2019-02-11T09:28:49.080Z,49.23
2019-02-11T09:31:54.861Z,48.59
2019-02-11T09:35:00.644Z,48.64
2019-02-11T09:38:06.590Z,48.57
2019-02-11T09:41:12.487Z,47.96
2019-02-11T09:44:18.420Z,47.92
2019-02-11T09:47:24.204Z,48.15
2019-02-11T09:50:39.859Z,48.14
2019-02-11T09:53:45.782Z,47.22
2019-02-11T09:56:51.670Z,46.83
2019-02-11T09:59:57.524Z,46.78
2019-02-11T10:03:03.585Z,48.22
2019-02-11T10:06:09.359Z,48.40
2019-02-11T10:09:15.250Z,46.81
2019-02-11T10:12:21.553Z,47.46
2019-02-11T10:15:27.495Z,49.22
2019-02-11T10:18:33.277Z,49.73
2019-02-11T10:21:39.160Z,49.81
2019-02-11T10:24:44.984Z,49.50
2019-02-11T10:27:50.756Z,47.71
2019-02-11T10:30:57.061Z,47.42
2019-02-11T10:34:03.878Z,47.80
2019-02-11T10:37:09.833Z,48.26
2019-02-11T10:40:15.974Z,48.02
2019-02-11T10:43:21.900Z,48.57
2019-02-11T10:46:27.866Z,48.92
2019-02-11T10:49:33.639Z,50.45
2019-02-11T10:52:40.426Z,50.73
2019-02-11T10:55:46.385Z,50.35
2019-02-11T10:58:52.238Z,49.59
2019-02-11T11:01:58.161Z,49.22
2019-02-11T11:05:04.115Z,47.40
2019-02-11T11:08:10.093Z,47.12
2019-02-11T11:11:16.007Z,45.72
2019-02-11T11:14:21.898Z,44.58
2019-02-11T11:17:27.823Z,42.94
2019-02-11T11:20:33.816Z,42.69
2019-02-11T11:23:39.604Z,43.53
2019-02-11T11:26:45.461Z,42.75
2019-02-11T11:29:51.242Z,42.32
2019-02-11T11:32:57.065Z,43.17
2019-02-11T11:36:02.873Z,43.85
2019-02-11T11:39:18.322Z,42.31
2019-02-11T11:42:24.173Z,42.34
2019-02-11T11:45:30.005Z,42.86
2019-02-11T11:48:36.099Z,43.14
2019-02-11T11:51:41.880Z,43.28
2019-02-11T11:54:47.678Z,43.19
2019-02-11T11:57:53.574Z,44.16
2019-02-11T12:00:59.533Z,45.00
2019-02-11T12:04:06.676Z,46.63
2019-02-11T12:07:12.821Z,46.67
2019-02-11T12:10:20.124Z,46.35
2019-02-11T12:13:27.792Z,46.39
2019-02-11T12:16:34.697Z,46.87
2019-02-11T12:19:40.491Z,47.15
2019-02-11T12:22:46.812Z,48.26
2019-02-11T12:25:52.636Z,48.44
2019-02-11T12:28:58.437Z,49.23
2019-02-11T12:32:05.828Z,49.17
2019-02-11T12:35:12.607Z,49.34
2019-02-11T12:38:18.435Z,49.77
2019-02-11T12:41:24.334Z,50.10
2019-02-11T12:44:30.183Z,50.49
2019-02-11T12:47:35.970Z,50.65
2019-02-11T12:50:41.889Z,50.94
2019-02-11T12:53:48.076Z,51.17
2019-02-11T12:56:53.854Z,50.51
2019-02-11T12:59:59.656Z,50.31
2019-02-11T13:03:06.010Z,50.88
2019-02-11T13:06:11.832Z,50.79
2019-02-11T13:09:17.698Z,51.52
2019-02-11T13:12:23.563Z,52.21
2019-02-11T13:15:56.368Z,52.57
2019-02-11T13:18:39.400Z,52.76
2019-02-11T13:21:44.632Z,52.96
2019-02-11T13:24:50.404Z,53.20
2019-02-11T13:27:56.215Z,52.37
2019-02-11T13:31:02.217Z,52.29
2019-02-11T13:34:08.064Z,51.48
2019-02-11T13:37:13.977Z,51.80
2019-02-11T13:40:19.891Z,52.38
2019-02-11T13:43:25.763Z,52.00
2019-02-11T13:46:31.565Z,51.08
2019-02-11T13:49:37.346Z,51.36
2019-02-11T13:52:43.211Z,50.89
2019-02-11T13:55:49.287Z,50.83
2019-02-11T13:58:55.287Z,50.59
2019-02-11T14:02:01.136Z,50.37
2019-02-11T14:05:07.518Z,50.53
2019-02-11T14:08:13.795Z,50.63
2019-02-11T14:11:19.577Z,50.41
2019-02-11T14:14:31.796Z,50.87
2019-02-11T14:17:37.709Z,51.05
2019-02-11T14:20:44.048Z,51.17
2019-02-11T14:23:50.039Z,51.30
2019-02-11T14:26:55.817Z,51.12
2019-02-11T14:30:01.623Z,51.86
2019-02-11T14:33:08.260Z,51.83
2019-02-11T14:36:14.337Z,51.93
2019-02-11T14:39:20.389Z,51.60
2019-02-11T14:42:26.321Z,51.89
2019-02-11T14:45:32.230Z,51.58
2019-02-11T14:48:38.143Z,51.50
2019-02-11T14:51:44.986Z,52.89
2019-02-11T14:54:50.890Z,52.67
2019-02-11T14:57:56.718Z,51.78
2019-02-11T15:01:02.507Z,51.32
2019-02-11T15:04:08.316Z,51.34
2019-02-11T15:07:14.046Z,51.62
2019-02-11T15:10:19.979Z,51.60
2019-02-11T15:13:25.742Z,51.41
2019-02-11T15:16:31.637Z,51.87
2019-02-11T15:19:37.409Z,52.14
2019-02-11T15:22:43.219Z,51.82
2019-02-11T15:25:48.985Z,51.71
2019-02-11T15:28:54.893Z,52.26
2019-02-11T15:32:00.667Z,52.48
2019-02-11T15:35:06.575Z,52.44
2019-02-11T15:38:12.368Z,52.42
2019-02-11T15:41:18.143Z,52.62
2019-02-11T15:44:23.900Z,53.18
2019-02-11T15:47:29.685Z,53.59
2019-02-11T15:50:35.688Z,53.92
2019-02-11T15:53:41.600Z,54.24
2019-02-11T15:56:47.419Z,53.77
2019-02-11T15:59:53.174Z,54.30
2019-02-11T16:02:58.940Z,54.46
2019-02-11T16:06:10.215Z,54.26
2019-02-11T16:09:12.454Z,54.37
2019-02-11T16:12:18.256Z,54.51
2019-02-11T16:15:24.126Z,54.57
2019-02-11T16:18:30.000Z,54.90
2019-02-11T16:21:35.773Z,55.40
2019-02-11T16:24:41.646Z,55.51
2019-02-11T16:27:47.555Z,55.56
2019-02-11T16:30:53.325Z,56.32
2019-02-11T16:33:59.143Z,57.15
2019-02-11T16:37:05.020Z,56.59
2019-02-11T16:40:13.604Z,56.71
2019-02-11T16:43:20.417Z,57.62
2019-02-11T16:46:26.194Z,58.48
2019-02-11T16:49:31.984Z,59.50
2019-02-11T16:52:37.882Z,58.91
2019-02-11T16:55:43.775Z,58.87
2019-02-11T16:58:49.662Z,57.97
2019-02-11T17:01:55.459Z,59.51
2019-02-11T17:05:01.241Z,59.00
2019-02-11T17:08:07.090Z,59.05
2019-02-11T17:11:12.862Z,58.64
2019-02-11T17:14:20.324Z,58.74
2019-02-11T17:17:26.119Z,58.72
2019-02-11T17:20:31.915Z,61.92
2019-02-11T17:23:37.823Z,62.87
2019-02-11T17:26:43.693Z,63.52
2019-02-11T17:29:49.644Z,62.76
2019-02-11T17:32:55.568Z,62.38
2019-02-11T17:36:01.371Z,61.41
2019-02-11T17:39:08.875Z,60.75
2019-02-11T17:42:14.898Z,60.90
2019-02-11T17:45:23.013Z,60.64
2019-02-11T17:48:28.904Z,60.15
2019-02-11T17:51:34.814Z,60.90
2019-02-11T17:54:40.647Z,60.79
2019-02-11T17:57:46.619Z,60.54
2019-02-11T18:00:56.205Z,61.25
2019-02-11T18:04:01.976Z,60.74
2019-02-11T18:07:08.331Z,61.44
2019-02-11T18:10:14.225Z,61.13
2019-02-11T18:13:20.004Z,61.28
2019-02-11T18:16:25.945Z,60.87
2019-02-11T18:19:31.759Z,61.47
2019-02-11T18:22:37.691Z,62.68
2019-02-11T18:25:43.525Z,62.39
2019-02-11T18:28:49.408Z,62.57
2019-02-11T18:31:55.228Z,62.11
2019-02-11T18:35:01.080Z,61.55
2019-02-11T18:38:06.926Z,61.11
2019-02-11T18:41:12.712Z,61.66
2019-02-11T18:44:18.697Z,61.28
2019-02-11T18:47:24.553Z,60.97
2019-02-11T18:50:30.430Z,61.01
2019-02-11T18:53:36.260Z,62.02
2019-02-11T18:56:42.156Z,61.76
2019-02-11T18:59:47.949Z,61.41
2019-02-11T19:02:54.127Z,60.47
2019-02-11T19:06:00.046Z,61.03
2019-02-11T19:09:08.732Z,60.81
2019-02-11T19:12:14.887Z,61.18
2019-02-11T19:15:20.861Z,60.66
2019-02-11T19:18:26.711Z,60.94
2019-02-11T19:21:33.458Z,61.13
2019-02-11T19:24:39.296Z,60.89
2019-02-11T19:27:45.076Z,60.81
2019-02-11T19:30:50.954Z,60.29
2019-02-11T19:33:56.813Z,61.88
2019-02-11T19:37:02.627Z,61.99
2019-02-11T19:40:10.225Z,62.13
2019-02-11T19:43:16.055Z,61.74
2019-02-11T19:46:22.221Z,61.80
2019-02-11T19:49:28.057Z,61.83
2019-02-11T19:52:33.952Z,62.16
2019-02-11T19:55:39.830Z,62.38
2019-02-11T19:58:45.709Z,61.94
2019-02-11T20:01:51.483Z,63.21
2019-02-11T20:04:57.284Z,63.51
2019-02-11T20:08:03.063Z,63.56
2019-02-11T20:11:08.936Z,63.38
2019-02-11T20:14:14.769Z,64.52
2019-02-11T20:17:20.523Z,63.41
2019-02-11T20:20:26.428Z,64.15
2019-02-11T20:23:32.177Z,64.92
2019-02-11T20:26:37.936Z,63.71
2019-02-11T20:29:43.700Z,63.67
2019-02-11T20:32:49.611Z,64.15
2019-02-11T20:35:55.431Z,63.17
2019-02-11T20:39:01.208Z,64.79
2019-02-11T20:42:08.615Z,64.08
2019-02-11T20:45:17.169Z,63.35
2019-02-11T20:48:22.978Z,63.29
2019-02-11T20:51:28.779Z,63.01
2019-02-11T20:54:34.569Z,63.57
2019-02-11T20:57:40.495Z,64.48
2019-02-11T21:00:46.363Z,63.32
2019-02-11T21:03:52.144Z,64.12
2019-02-11T21:06:57.918Z,63.46
2019-02-11T21:10:03.949Z,62.68
2019-02-11T21:13:09.825Z,62.41
2019-02-11T21:16:15.612Z,63.29
2019-02-11T21:19:21.391Z,63.50
2019-02-11T21:22:27.556Z,63.60
2019-02-11T21:25:33.431Z,62.70
2019-02-11T21:28:39.223Z,62.56
2019-02-11T21:31:45.146Z,63.37
2019-02-11T21:34:50.924Z,64.28
2019-02-11T21:37:56.709Z,63.35
2019-02-11T21:41:03.522Z,62.58
2019-02-11T21:44:09.306Z,65.05
2019-02-11T21:47:15.107Z,64.32
2019-02-11T21:50:26.276Z,64.82
2019-02-11T21:53:28.654Z,64.19
2019-02-11T21:56:34.409Z,66.37
2019-02-11T21:59:40.304Z,65.83
2019-02-11T22:02:46.132Z,65.16
2019-02-11T22:05:51.889Z,64.95
2019-02-11T22:08:57.735Z,63.64
2019-02-11T22:12:03.514Z,62.81
2019-02-11T22:15:10.041Z,64.00
2019-02-11T22:18:15.820Z,64.80
2019-02-11T22:21:21.639Z,64.74
2019-02-11T22:24:27.431Z,64.52
2019-02-11T22:27:33.300Z,63.57
2019-02-11T22:30:40.096Z,67.52
2019-02-11T22:33:45.852Z,66.76
2019-02-11T22:36:51.640Z,65.17
2019-02-11T22:39:57.515Z,65.36
2019-02-11T22:43:03.350Z,64.92
2019-02-11T22:46:09.134Z,64.19
2019-02-11T22:49:14.928Z,63.69
2019-02-11T22:52:20.689Z,65.20
2019-02-11T22:55:26.483Z,63.60
2019-02-11T22:58:33.236Z,64.29
2019-02-11T23:01:39.121Z,63.37
2019-02-11T23:04:44.899Z,64.60
2019-02-11T23:07:50.661Z,65.26
2019-02-11T23:10:56.417Z,64.99
2019-02-11T23:14:02.248Z,64.77
2019-02-11T23:17:08.002Z,64.42
2019-02-11T23:20:14.011Z,65.67
2019-02-11T23:23:19.781Z,65.89
2019-02-11T23:26:25.613Z,66.88
2019-02-11T23:29:31.378Z,66.24
2019-02-11T23:32:37.149Z,66.28
2019-02-11T23:35:43.036Z,66.89
2019-02-11T23:38:48.811Z,67.63
2019-02-11T23:41:54.569Z,66.94
2019-02-11T23:45:00.353Z,67.12
2019-02-11T23:48:06.243Z,69.81
2019-02-11T23:51:12.036Z,69.09
2019-02-11T23:54:17.812Z,68.57
2019-02-11T23:57:23.646Z,69.08
